sensor_id;sensor_type;location;lat;lon;timestamp;pressure;altitude;pressure_sealevel;temperature;humidity
67740;BME280;54536;50.090;14.420;2022-11-02T00:00:32;99963.50;;;13.65;71.33
67740;BME280;54536;50.090;14.420;2022-11-02T00:03:19;99961.31;;;13.51;71.83
67740;BME280;54536;50.090;14.420;2022-11-02T00:05:46;99958.78;;;13.49;71.49
67740;BME280;54536;50.090;14.420;2022-11-02T00:08:12;99966.84;;;13.57;71.66
67740;BME280;54536;50.090;14.420;2022-11-02T00:10:44;99958.94;;;13.48;71.97
67740;BME280;54536;50.090;14.420;2022-11-02T00:13:10;99964.63;;;13.53;72.08
67740;BME280;54536;50.090;14.420;2022-11-02T00:15:37;99971.88;;;13.61;71.82
67740;BME280;54536;50.090;14.420;2022-11-02T00:18:08;99975.75;;;13.47;71.51
67740;BME280;54536;50.090;14.420;2022-11-02T00:20:39;99968.78;;;13.55;70.92
67740;BME280;54536;50.090;14.420;2022-11-02T00:23:07;99971.13;;;13.68;70.65
67740;BME280;54536;50.090;14.420;2022-11-02T00:25:42;99973.66;;;13.50;71.22
67740;BME280;54536;50.090;14.420;2022-11-02T00:28:11;99972.56;;;13.43;70.89
67740;BME280;54536;50.090;14.420;2022-11-02T00:30:37;99974.81;;;13.28;71.74
67740;BME280;54536;50.090;14.420;2022-11-02T00:33:03;99978.00;;;13.32;72.18
67740;BME280;54536;50.090;14.420;2022-11-02T00:35:30;99981.44;;;13.23;72.03
67740;BME280;54536;50.090;14.420;2022-11-02T00:37:56;99978.69;;;13.24;71.90
67740;BME280;54536;50.090;14.420;2022-11-02T00:40:22;99978.13;;;13.40;72.47
67740;BME280;54536;50.090;14.420;2022-11-02T00:42:48;99976.34;;;13.41;71.83
67740;BME280;54536;50.090;14.420;2022-11-02T00:45:14;99975.63;;;13.39;71.51
67740;BME280;54536;50.090;14.420;2022-11-02T00:47:43;99975.75;;;13.37;71.68
67740;BME280;54536;50.090;14.420;2022-11-02T00:50:10;99982.03;;;13.26;71.40
67740;BME280;54536;50.090;14.420;2022-11-02T00:52:42;99983.78;;;13.06;71.88
67740;BME280;54536;50.090;14.420;2022-11-02T00:55:11;99984.63;;;13.17;72.10
67740;BME280;54536;50.090;14.420;2022-11-02T00:57:43;99985.06;;;13.12;72.21
67740;BME280;54536;50.090;14.420;2022-11-02T01:00:11;99981.00;;;13.18;71.88
67740;BME280;54536;50.090;14.420;2022-11-02T01:02:38;99987.03;;;13.29;71.42
67740;BME280;54536;50.090;14.420;2022-11-02T01:05:05;99983.78;;;13.16;71.12
67740;BME280;54536;50.090;14.420;2022-11-02T01:07:31;99976.44;;;13.20;71.49
67740;BME280;54536;50.090;14.420;2022-11-02T01:09:58;99980.72;;;13.11;70.76
67740;BME280;54536;50.090;14.420;2022-11-02T01:12:25;99985.72;;;13.24;70.70
67740;BME280;54536;50.090;14.420;2022-11-02T01:14:52;99980.16;;;13.07;71.14
67740;BME280;54536;50.090;14.420;2022-11-02T01:17:18;99981.47;;;13.32;70.58
67740;BME280;54536;50.090;14.420;2022-11-02T01:19:45;99986.03;;;13.30;70.16
67740;BME280;54536;50.090;14.420;2022-11-02T01:22:12;99987.69;;;13.22;70.80
67740;BME280;54536;50.090;14.420;2022-11-02T01:24:38;99983.50;;;13.00;70.24
67740;BME280;54536;50.090;14.420;2022-11-02T01:27:04;99980.16;;;12.98;70.69
67740;BME280;54536;50.090;14.420;2022-11-02T01:29:30;99976.56;;;12.89;70.97
67740;BME280;54536;50.090;14.420;2022-11-02T01:31:56;99976.00;;;12.85;71.39
67740;BME280;54536;50.090;14.420;2022-11-02T01:34:34;99977.22;;;12.81;70.76
67740;BME280;54536;50.090;14.420;2022-11-02T01:37:00;99978.91;;;12.82;70.62
67740;BME280;54536;50.090;14.420;2022-11-02T01:39:27;99974.59;;;12.91;70.65
67740;BME280;54536;50.090;14.420;2022-11-02T01:41:53;99978.38;;;12.98;70.56
67740;BME280;54536;50.090;14.420;2022-11-02T01:44:32;99967.66;;;13.00;70.92
67740;BME280;54536;50.090;14.420;2022-11-02T01:47:21;99976.69;;;12.97;70.69
67740;BME280;54536;50.090;14.420;2022-11-02T01:52:44;99985.00;;;12.83;70.99
67740;BME280;54536;50.090;14.420;2022-11-02T01:55:14;99978.38;;;12.88;70.84
67740;BME280;54536;50.090;14.420;2022-11-02T01:57:46;99974.47;;;12.93;71.13
67740;BME280;54536;50.090;14.420;2022-11-02T02:00:15;99982.94;;;12.96;70.78
67740;BME280;54536;50.090;14.420;2022-11-02T02:03:00;99976.84;;;13.05;70.34
67740;BME280;54536;50.090;14.420;2022-11-02T02:05:31;99986.41;;;12.87;70.93
67740;BME280;54536;50.090;14.420;2022-11-02T02:08:01;99977.38;;;12.89;70.97
67740;BME280;54536;50.090;14.420;2022-11-02T02:10:28;99971.69;;;12.94;70.91
67740;BME280;54536;50.090;14.420;2022-11-02T02:12:54;99973.19;;;12.77;71.37
67740;BME280;54536;50.090;14.420;2022-11-02T02:15:30;99969.00;;;12.75;71.75
67740;BME280;54536;50.090;14.420;2022-11-02T02:18:12;99956.25;;;12.80;71.20
67740;BME280;54536;50.090;14.420;2022-11-02T02:30:01;99970.47;;;12.98;70.88
67740;BME280;54536;50.090;14.420;2022-11-02T02:32:55;99969.59;;;12.88;71.39
67740;BME280;54536;50.090;14.420;2022-11-02T02:35:44;99968.22;;;12.94;70.75
67740;BME280;54536;50.090;14.420;2022-11-02T02:38:18;99967.22;;;12.95;71.16
67740;BME280;54536;50.090;14.420;2022-11-02T02:40:56;99971.41;;;12.97;71.38
67740;BME280;54536;50.090;14.420;2022-11-02T02:43:38;99964.03;;;12.91;70.96
67740;BME280;54536;50.090;14.420;2022-11-02T02:46:20;99970.16;;;12.82;71.67
67740;BME280;54536;50.090;14.420;2022-11-02T02:48:52;99967.63;;;12.80;71.99
67740;BME280;54536;50.090;14.420;2022-11-02T02:51:29;99970.47;;;12.98;71.30
67740;BME280;54536;50.090;14.420;2022-11-02T02:54:03;99971.84;;;12.93;72.41
67740;BME280;54536;50.090;14.420;2022-11-02T02:56:37;99974.31;;;12.84;73.06
67740;BME280;54536;50.090;14.420;2022-11-02T02:59:19;99972.81;;;12.92;73.48
67740;BME280;54536;50.090;14.420;2022-11-02T03:01:47;99980.88;;;13.00;73.13
67740;BME280;54536;50.090;14.420;2022-11-02T03:04:14;99974.19;;;12.96;72.67
67740;BME280;54536;50.090;14.420;2022-11-02T03:07:00;99974.88;;;12.98;71.76
67740;BME280;54536;50.090;14.420;2022-11-02T03:09:35;99981.66;;;12.81;71.49
67740;BME280;54536;50.090;14.420;2022-11-02T03:23:17;99987.72;;;12.62;70.17
67740;BME280;54536;50.090;14.420;2022-11-02T03:36:47;100004.38;;;12.53;69.45
67740;BME280;54536;50.090;14.420;2022-11-02T03:39:19;100005.47;;;12.50;69.52
67740;BME280;54536;50.090;14.420;2022-11-02T03:41:50;100007.84;;;12.53;69.97
67740;BME280;54536;50.090;14.420;2022-11-02T03:44:22;100008.16;;;12.60;69.06
67740;BME280;54536;50.090;14.420;2022-11-02T03:46:56;100009.09;;;12.49;69.16
67740;BME280;54536;50.090;14.420;2022-11-02T03:49:27;100015.56;;;12.45;69.07
67740;BME280;54536;50.090;14.420;2022-11-02T03:51:59;100019.03;;;12.46;69.72
67740;BME280;54536;50.090;14.420;2022-11-02T03:57:04;100026.13;;;12.45;68.71
67740;BME280;54536;50.090;14.420;2022-11-02T03:59:32;100020.28;;;12.41;69.04
67740;BME280;54536;50.090;14.420;2022-11-02T04:02:00;100025.94;;;12.27;69.44
67740;BME280;54536;50.090;14.420;2022-11-02T04:04:27;100028.41;;;12.29;70.01
67740;BME280;54536;50.090;14.420;2022-11-02T04:06:53;100029.81;;;12.23;70.06
67740;BME280;54536;50.090;14.420;2022-11-02T04:09:20;100032.66;;;12.10;69.98
67740;BME280;54536;50.090;14.420;2022-11-02T04:11:46;100025.81;;;12.38;69.71
67740;BME280;54536;50.090;14.420;2022-11-02T04:14:31;100031.44;;;12.55;69.82
67740;BME280;54536;50.090;14.420;2022-11-02T04:17:04;100038.75;;;12.41;69.83
67740;BME280;54536;50.090;14.420;2022-11-02T04:19:50;100038.09;;;12.49;70.18
67740;BME280;54536;50.090;14.420;2022-11-02T04:22:17;100040.63;;;12.60;69.84
67740;BME280;54536;50.090;14.420;2022-11-02T04:25:02;100038.03;;;12.70;69.53
67740;BME280;54536;50.090;14.420;2022-11-02T04:27:41;100044.25;;;12.59;69.52
67740;BME280;54536;50.090;14.420;2022-11-02T04:30:08;100036.06;;;12.62;68.82
67740;BME280;54536;50.090;14.420;2022-11-02T04:32:42;100046.75;;;12.61;69.42
67740;BME280;54536;50.090;14.420;2022-11-02T04:35:28;100040.78;;;12.28;69.25
67740;BME280;54536;50.090;14.420;2022-11-02T04:37:54;100041.44;;;12.51;68.86
67740;BME280;54536;50.090;14.420;2022-11-02T04:40:39;100042.06;;;12.34;69.49
67740;BME280;54536;50.090;14.420;2022-11-02T04:43:05;100041.00;;;12.46;68.74
67740;BME280;54536;50.090;14.420;2022-11-02T04:45:33;100035.59;;;12.48;68.42
67740;BME280;54536;50.090;14.420;2022-11-02T04:51:39;100035.88;;;12.54;68.58
67740;BME280;54536;50.090;14.420;2022-11-02T04:54:05;100028.19;;;12.72;67.72
67740;BME280;54536;50.090;14.420;2022-11-02T04:56:31;100026.91;;;12.67;68.07
67740;BME280;54536;50.090;14.420;2022-11-02T04:58:59;100025.56;;;12.72;68.22
67740;BME280;54536;50.090;14.420;2022-11-02T05:01:28;100029.72;;;12.84;67.17
67740;BME280;54536;50.090;14.420;2022-11-02T05:03:55;100025.38;;;12.64;67.81
67740;BME280;54536;50.090;14.420;2022-11-02T05:06:22;100024.97;;;12.69;67.25
67740;BME280;54536;50.090;14.420;2022-11-02T05:08:49;100028.03;;;12.74;67.50
67740;BME280;54536;50.090;14.420;2022-11-02T05:11:15;100034.72;;;12.78;67.98
67740;BME280;54536;50.090;14.420;2022-11-02T05:13:42;100029.47;;;12.87;68.38
67740;BME280;54536;50.090;14.420;2022-11-02T05:16:12;100036.28;;;12.90;67.26
67740;BME280;54536;50.090;14.420;2022-11-02T05:18:39;100040.03;;;12.97;67.12
67740;BME280;54536;50.090;14.420;2022-11-02T05:21:05;100046.25;;;12.77;67.98
67740;BME280;54536;50.090;14.420;2022-11-02T05:23:31;100032.69;;;12.51;68.27
67740;BME280;54536;50.090;14.420;2022-11-02T05:26:03;100033.72;;;12.69;68.13
67740;BME280;54536;50.090;14.420;2022-11-02T05:28:31;100035.53;;;12.78;67.79
67740;BME280;54536;50.090;14.420;2022-11-02T05:30:59;100035.53;;;12.78;68.53
67740;BME280;54536;50.090;14.420;2022-11-02T05:33:28;100038.25;;;12.57;68.05
67740;BME280;54536;50.090;14.420;2022-11-02T05:35:55;100032.47;;;12.63;68.26
67740;BME280;54536;50.090;14.420;2022-11-02T05:38:23;100032.16;;;12.57;68.88
67740;BME280;54536;50.090;14.420;2022-11-02T05:40:55;100046.22;;;12.67;68.60
67740;BME280;54536;50.090;14.420;2022-11-02T05:43:22;100042.59;;;12.68;67.48
67740;BME280;54536;50.090;14.420;2022-11-02T05:45:53;100047.28;;;12.55;68.69
67740;BME280;54536;50.090;14.420;2022-11-02T05:48:19;100041.19;;;12.64;68.14
67740;BME280;54536;50.090;14.420;2022-11-02T05:50:46;100035.84;;;12.75;68.40
67740;BME280;54536;50.090;14.420;2022-11-02T05:53:12;100041.19;;;12.64;68.20
67740;BME280;54536;50.090;14.420;2022-11-02T05:55:38;100039.63;;;12.52;68.83
67740;BME280;54536;50.090;14.420;2022-11-02T05:58:04;100047.22;;;12.45;68.36
67740;BME280;54536;50.090;14.420;2022-11-02T06:00:30;100047.50;;;12.42;69.13
67740;BME280;54536;50.090;14.420;2022-11-02T06:02:57;100050.88;;;12.54;68.53
67740;BME280;54536;50.090;14.420;2022-11-02T06:05:25;100051.00;;;12.43;68.89
67740;BME280;54536;50.090;14.420;2022-11-02T06:07:51;100046.19;;;12.57;68.88
67740;BME280;54536;50.090;14.420;2022-11-02T06:10:17;100047.16;;;12.56;68.43
67740;BME280;54536;50.090;14.420;2022-11-02T06:12:43;100052.56;;;12.55;68.44
67740;BME280;54536;50.090;14.420;2022-11-02T06:15:09;100051.34;;;12.59;68.48
67740;BME280;54536;50.090;14.420;2022-11-02T06:17:40;100047.78;;;12.49;69.18
67740;BME280;54536;50.090;14.420;2022-11-02T06:20:07;100054.47;;;12.43;69.32
67740;BME280;54536;50.090;14.420;2022-11-02T06:22:40;100058.38;;;12.58;69.17
67740;BME280;54536;50.090;14.420;2022-11-02T06:25:07;100055.94;;;12.67;68.81
67740;BME280;54536;50.090;14.420;2022-11-02T06:27:34;100055.50;;;12.61;68.73
67740;BME280;54536;50.090;14.420;2022-11-02T06:30:01;100055.94;;;12.67;69.02
67740;BME280;54536;50.090;14.420;2022-11-02T06:32:27;100058.66;;;12.55;69.01
67740;BME280;54536;50.090;14.420;2022-11-02T06:34:53;100059.38;;;12.57;69.04
67740;BME280;54536;50.090;14.420;2022-11-02T06:37:19;100060.41;;;12.45;69.35
67740;BME280;54536;50.090;14.420;2022-11-02T06:39:45;100065.31;;;12.50;68.96
67740;BME280;54536;50.090;14.420;2022-11-02T06:42:11;100070.81;;;12.37;69.36
67740;BME280;54536;50.090;14.420;2022-11-02T06:44:37;100075.09;;;12.38;69.70
67740;BME280;54536;50.090;14.420;2022-11-02T06:47:05;100074.22;;;12.28;70.05
67740;BME280;54536;50.090;14.420;2022-11-02T06:49:32;100065.22;;;12.30;70.17
67740;BME280;54536;50.090;14.420;2022-11-02T06:51:58;100073.56;;;12.35;69.48
67740;BME280;54536;50.090;14.420;2022-11-02T06:54:24;100082.94;;;12.49;70.01
67740;BME280;54536;50.090;14.420;2022-11-02T07:00:14;100083.69;;;12.30;70.33
67740;BME280;54536;50.090;14.420;2022-11-02T07:02:44;100081.97;;;12.50;70.21
67740;BME280;54536;50.090;14.420;2022-11-02T07:05:11;100082.03;;;12.60;69.84
67740;BME280;54536;50.090;14.420;2022-11-02T07:07:38;100089.66;;;12.63;69.74
67740;BME280;54536;50.090;14.420;2022-11-02T07:10:04;100088.69;;;12.64;69.46
67740;BME280;54536;50.090;14.420;2022-11-02T07:12:33;100089.19;;;12.79;69.54
67740;BME280;54536;50.090;14.420;2022-11-02T07:14:59;100083.91;;;12.79;68.61
67740;BME280;54536;50.090;14.420;2022-11-02T07:17:26;100084.75;;;12.79;68.76
67740;BME280;54536;50.090;14.420;2022-11-02T07:19:52;100081.91;;;12.71;68.88
67740;BME280;54536;50.090;14.420;2022-11-02T07:22:18;100082.31;;;12.67;69.21
67740;BME280;54536;50.090;14.420;2022-11-02T07:24:43;100091.38;;;12.74;69.37
67740;BME280;54536;50.090;14.420;2022-11-02T07:27:10;100091.88;;;12.88;68.69
67740;BME280;54536;50.090;14.420;2022-11-02T07:29:36;100093.00;;;12.96;68.82
67740;BME280;54536;50.090;14.420;2022-11-02T07:32:02;100102.16;;;13.01;68.13
67740;BME280;54536;50.090;14.420;2022-11-02T07:34:28;100107.16;;;13.04;68.22
67740;BME280;54536;50.090;14.420;2022-11-02T07:36:54;100104.94;;;13.00;68.72
67740;BME280;54536;50.090;14.420;2022-11-02T07:39:21;100096.75;;;13.03;68.87
67740;BME280;54536;50.090;14.420;2022-11-02T07:41:47;100100.91;;;12.96;68.82
67740;BME280;54536;50.090;14.420;2022-11-02T07:44:14;100105.34;;;12.95;68.40
67740;BME280;54536;50.090;14.420;2022-11-02T07:46:40;100105.47;;;12.94;69.05
67740;BME280;54536;50.090;14.420;2022-11-02T07:49:06;100120.00;;;13.09;68.69
67740;BME280;54536;50.090;14.420;2022-11-02T07:51:33;100108.97;;;13.04;69.11
67740;BME280;54536;50.090;14.420;2022-11-02T07:53:59;100113.31;;;13.05;68.85
67740;BME280;54536;50.090;14.420;2022-11-02T07:56:26;100111.75;;;13.02;68.75
67740;BME280;54536;50.090;14.420;2022-11-02T07:58:52;100107.72;;;12.98;68.71
67740;BME280;54536;50.090;14.420;2022-11-02T08:01:19;100114.00;;;13.07;69.08
67740;BME280;54536;50.090;14.420;2022-11-02T08:03:44;100111.00;;;13.21;68.33
67740;BME280;54536;50.090;14.420;2022-11-02T08:06:11;100114.00;;;13.07;68.72
67740;BME280;54536;50.090;14.420;2022-11-02T08:08:37;100114.03;;;13.17;68.30
67740;BME280;54536;50.090;14.420;2022-11-02T08:11:07;100122.72;;;13.28;68.19
67740;BME280;54536;50.090;14.420;2022-11-02T08:13:34;100119.41;;;13.46;67.93
67740;BME280;54536;50.090;14.420;2022-11-02T08:16:02;100127.50;;;13.54;67.80
67740;BME280;54536;50.090;14.420;2022-11-02T08:18:48;100132.63;;;13.65;66.85
67740;BME280;54536;50.090;14.420;2022-11-02T08:21:15;100129.16;;;13.74;66.83
67740;BME280;54536;50.090;14.420;2022-11-02T08:23:41;100128.19;;;13.75;67.08
67740;BME280;54536;50.090;14.420;2022-11-02T08:26:07;100129.56;;;13.79;67.21
67740;BME280;54536;50.090;14.420;2022-11-02T08:28:34;100130.00;;;13.94;66.13
67740;BME280;54536;50.090;14.420;2022-11-02T08:31:01;100128.06;;;14.06;66.09
67740;BME280;54536;50.090;14.420;2022-11-02T08:33:27;100127.75;;;14.09;66.38
67740;BME280;54536;50.090;14.420;2022-11-02T08:35:53;100127.88;;;14.27;65.41
67740;BME280;54536;50.090;14.420;2022-11-02T08:41:09;100124.09;;;14.39;64.97
67740;BME280;54536;50.090;14.420;2022-11-02T08:43:36;100123.66;;;14.54;64.38
67740;BME280;54536;50.090;14.420;2022-11-02T08:46:02;100119.50;;;14.51;65.04
67740;BME280;54536;50.090;14.420;2022-11-02T08:48:28;100117.81;;;14.60;64.06
67740;BME280;54536;50.090;14.420;2022-11-02T08:50:54;100123.34;;;14.66;63.52
67740;BME280;54536;50.090;14.420;2022-11-02T08:53:21;100120.69;;;14.66;62.76
67740;BME280;54536;50.090;14.420;2022-11-02T08:55:48;100120.91;;;14.83;62.85
67740;BME280;54536;50.090;14.420;2022-11-02T08:58:13;100120.63;;;14.86;62.11
67740;BME280;54536;50.090;14.420;2022-11-02T09:00:39;100123.25;;;14.95;61.94
67740;BME280;54536;50.090;14.420;2022-11-02T09:03:08;100115.63;;;15.10;61.06
67740;BME280;54536;50.090;14.420;2022-11-02T09:05:41;100121.31;;;15.15;61.25
67740;BME280;54536;50.090;14.420;2022-11-02T09:08:14;100129.97;;;15.17;60.78
67740;BME280;54536;50.090;14.420;2022-11-02T09:10:42;100118.97;;;15.12;61.01
67740;BME280;54536;50.090;14.420;2022-11-02T09:13:11;100127.44;;;15.16;60.37
67740;BME280;54536;50.090;14.420;2022-11-02T09:15:38;100121.28;;;15.25;59.16
67740;BME280;54536;50.090;14.420;2022-11-02T09:18:05;100123.16;;;15.33;59.81
67740;BME280;54536;50.090;14.420;2022-11-02T09:20:33;100129.75;;;15.46;59.34
67740;BME280;54536;50.090;14.420;2022-11-02T09:22:59;100126.53;;;15.53;58.71
67740;BME280;54536;50.090;14.420;2022-11-02T09:25:26;100118.44;;;15.54;58.53
67740;BME280;54536;50.090;14.420;2022-11-02T09:27:54;100110.53;;;15.62;57.38
67740;BME280;54536;50.090;14.420;2022-11-02T09:30:21;100102.28;;;15.65;57.21
67740;BME280;54536;50.090;14.420;2022-11-02T09:32:54;100099.59;;;15.75;56.96
67740;BME280;54536;50.090;14.420;2022-11-02T09:35:21;100105.59;;;15.77;56.06
67740;BME280;54536;50.090;14.420;2022-11-02T09:37:48;100109.81;;;15.88;55.69
67740;BME280;54536;50.090;14.420;2022-11-02T09:40:21;100111.25;;;16.00;55.60
67740;BME280;54536;50.090;14.420;2022-11-02T09:45:54;100105.16;;;16.08;55.34
67740;BME280;54536;50.090;14.420;2022-11-02T09:48:55;100101.78;;;16.15;54.86
67740;BME280;54536;50.090;14.420;2022-11-02T09:51:37;100109.41;;;16.19;54.61
67740;BME280;54536;50.090;14.420;2022-11-02T09:54:11;100093.53;;;16.27;54.24
67740;BME280;54536;50.090;14.420;2022-11-02T09:56:42;100102.31;;;16.27;54.11
67740;BME280;54536;50.090;14.420;2022-11-02T09:59:15;100105.19;;;16.34;53.69
67740;BME280;54536;50.090;14.420;2022-11-02T10:02:00;100097.13;;;16.44;53.49
67740;BME280;54536;50.090;14.420;2022-11-02T10:09:48;100101.53;;;16.61;52.32
67740;BME280;54536;50.090;14.420;2022-11-02T10:15:22;100100.44;;;16.72;52.34
67740;BME280;54536;50.090;14.420;2022-11-02T10:17:56;100093.03;;;16.75;52.29
67740;BME280;54536;50.090;14.420;2022-11-02T10:20:44;100095.69;;;16.75;51.71
67740;BME280;54536;50.090;14.420;2022-11-02T10:23:40;100081.97;;;16.88;51.15
67740;BME280;54536;50.090;14.420;2022-11-02T10:26:35;100089.25;;;16.86;51.29
67740;BME280;54536;50.090;14.420;2022-11-02T10:29:16;100095.13;;;17.06;51.12
67740;BME280;54536;50.090;14.420;2022-11-02T10:38:14;100097.00;;;17.14;50.85
67740;BME280;54536;50.090;14.420;2022-11-02T10:52:04;100091.78;;;17.63;48.47
67740;BME280;54536;50.090;14.420;2022-11-02T10:54:31;100093.25;;;17.65;47.81
67740;BME280;54536;50.090;14.420;2022-11-02T10:56:58;100090.78;;;17.64;47.84
67740;BME280;54536;50.090;14.420;2022-11-02T10:59:24;100099.91;;;17.53;49.04
67740;BME280;54536;50.090;14.420;2022-11-02T11:04:26;100103.47;;;17.19;49.28
67740;BME280;54536;50.090;14.420;2022-11-02T11:06:54;100099.88;;;17.45;48.80
67740;BME280;54536;50.090;14.420;2022-11-02T11:09:32;100101.53;;;17.46;48.54
67740;BME280;54536;50.090;14.420;2022-11-02T11:12:06;100098.53;;;17.32;48.84
67740;BME280;54536;50.090;14.420;2022-11-02T11:14:46;100092.22;;;17.42;49.31
67740;BME280;54536;50.090;14.420;2022-11-02T11:17:19;100099.03;;;17.36;49.31
67740;BME280;54536;50.090;14.420;2022-11-02T11:19:51;100098.66;;;17.23;49.57
67740;BME280;54536;50.090;14.420;2022-11-02T11:22:27;100101.50;;;17.21;49.34
67740;BME280;54536;50.090;14.420;2022-11-02T11:25:18;100098.66;;;17.23;49.64
67740;BME280;54536;50.090;14.420;2022-11-02T11:27:54;100098.34;;;17.26;50.21
67740;BME280;54536;50.090;14.420;2022-11-02T11:30:36;100093.03;;;17.26;50.56
67740;BME280;54536;50.090;14.420;2022-11-02T11:33:05;100092.50;;;17.14;50.53
67740;BME280;54536;50.090;14.420;2022-11-02T11:35:34;100089.53;;;17.17;50.44
67740;BME280;54536;50.090;14.420;2022-11-02T11:38:13;100094.19;;;17.23;51.24
67740;BME280;54536;50.090;14.420;2022-11-02T11:40:45;100092.34;;;17.16;50.34
67740;BME280;54536;50.090;14.420;2022-11-02T11:43:17;100089.53;;;17.17;50.16
67740;BME280;54536;50.090;14.420;2022-11-02T11:46:01;100080.56;;;17.18;50.89
67740;BME280;54536;50.090;14.420;2022-11-02T11:48:55;100090.03;;;17.21;50.59
67740;BME280;54536;50.090;14.420;2022-11-02T11:56:40;100074.28;;;17.27;50.83
67740;BME280;54536;50.090;14.420;2022-11-02T11:59:29;100075.09;;;17.28;51.19
67740;BME280;54536;50.090;14.420;2022-11-02T12:02:00;100070.63;;;17.37;50.36
67740;BME280;54536;50.090;14.420;2022-11-02T12:04:32;100067.81;;;17.30;49.88
67740;BME280;54536;50.090;14.420;2022-11-02T12:07:17;100075.97;;;17.37;50.06
67740;BME280;54536;50.090;14.420;2022-11-02T12:10:10;100067.13;;;17.28;49.76
67740;BME280;54536;50.090;14.420;2022-11-02T12:16:03;100065.31;;;17.37;49.58
67740;BME280;54536;50.090;14.420;2022-11-02T12:44:37;100043.06;;;17.62;48.48
67740;BME280;54536;50.090;14.420;2022-11-02T12:47:19;100044.72;;;17.71;48.81
67740;BME280;54536;50.090;14.420;2022-11-02T12:52:52;100047.38;;;17.47;48.92
67740;BME280;54536;50.090;14.420;2022-11-02T12:55:25;100036.25;;;17.51;48.79
67740;BME280;54536;50.090;14.420;2022-11-02T12:58:00;100053.69;;;17.46;47.67
67740;BME280;54536;50.090;14.420;2022-11-02T13:00:27;100039.06;;;17.42;47.99
67740;BME280;54536;50.090;14.420;2022-11-02T13:05:34;100039.84;;;17.26;47.21
67740;BME280;54536;50.090;14.420;2022-11-02T13:10:45;100046.53;;;17.30;48.23
67740;BME280;54536;50.090;14.420;2022-11-02T13:14:12;100049.19;;;17.30;48.12
67740;BME280;54536;50.090;14.420;2022-11-02T13:16:15;100044.03;;;17.28;48.42
67740;BME280;54536;50.090;14.420;2022-11-02T13:18:52;100042.84;;;17.23;48.57
67740;BME280;54536;50.090;14.420;2022-11-02T13:21:41;100048.38;;;17.38;48.16
67740;BME280;54536;50.090;14.420;2022-11-02T13:24:19;100045.34;;;17.32;48.11
67740;BME280;54536;50.090;14.420;2022-11-02T13:26:48;100048.19;;;17.31;47.12
67740;BME280;54536;50.090;14.420;2022-11-02T13:29:45;100046.84;;;17.35;47.58
67740;BME280;54536;50.090;14.420;2022-11-02T13:32:34;100054.00;;;17.35;47.67
67740;BME280;54536;50.090;14.420;2022-11-02T13:37:44;100045.34;;;17.32;47.68
67740;BME280;54536;50.090;14.420;2022-11-02T13:40:49;100052.81;;;17.29;47.25
67740;BME280;54536;50.090;14.420;2022-11-02T13:43:32;100053.50;;;17.31;47.16
67740;BME280;54536;50.090;14.420;2022-11-02T13:46:26;100065.50;;;17.43;47.04
67740;BME280;54536;50.090;14.420;2022-11-02T13:49:28;100055.69;;;17.44;47.30
67740;BME280;54536;50.090;14.420;2022-11-02T13:52:14;100056.50;;;17.36;47.38
67740;BME280;54536;50.090;14.420;2022-11-02T13:54:47;100056.34;;;17.38;47.45
67740;BME280;54536;50.090;14.420;2022-11-02T13:57:35;100059.66;;;17.31;47.25
67740;BME280;54536;50.090;14.420;2022-11-02T14:03:22;100068.63;;;17.30;47.75
67740;BME280;54536;50.090;14.420;2022-11-02T14:05:57;100065.78;;;17.32;47.38
67740;BME280;54536;50.090;14.420;2022-11-02T14:08:35;100071.28;;;17.39;47.99
67740;BME280;54536;50.090;14.420;2022-11-02T14:11:24;100076.59;;;17.39;47.96
67740;BME280;54536;50.090;14.420;2022-11-02T14:16:42;100069.63;;;17.38;48.07
67740;BME280;54536;50.090;14.420;2022-11-02T14:19:28;100080.09;;;17.39;47.75
67740;BME280;54536;50.090;14.420;2022-11-02T14:41:09;100073.91;;;17.14;48.38
67740;BME280;54536;50.090;14.420;2022-11-02T14:46:58;100066.91;;;17.13;47.09
67740;BME280;54536;50.090;14.420;2022-11-02T14:49:29;100065.75;;;17.07;47.66
67740;BME280;54536;50.090;14.420;2022-11-02T14:52:06;100057.47;;;17.11;47.79
67740;BME280;54536;50.090;14.420;2022-11-02T14:55:03;100071.25;;;17.14;47.72
67740;BME280;54536;50.090;14.420;2022-11-02T14:57:48;100068.56;;;17.06;47.98
67740;BME280;54536;50.090;14.420;2022-11-02T15:00:22;100072.91;;;17.07;48.27
67740;BME280;54536;50.090;14.420;2022-11-02T15:02:49;100071.06;;;17.07;50.38
67740;BME280;54536;50.090;14.420;2022-11-02T15:05:28;100074.50;;;16.92;47.77
67740;BME280;54536;50.090;14.420;2022-11-02T15:18:31;100073.28;;;16.78;46.23
67740;BME280;54536;50.090;14.420;2022-11-02T15:24:10;100067.16;;;16.51;46.04
67740;BME280;54536;50.090;14.420;2022-11-02T15:26:57;100074.47;;;16.57;47.02
67740;BME280;54536;50.090;14.420;2022-11-02T15:31:56;100078.22;;;16.47;46.69
67740;BME280;54536;50.090;14.420;2022-11-02T15:34:33;100073.94;;;16.54;46.41
67740;BME280;54536;50.090;14.420;2022-11-02T15:37:01;100065.47;;;16.50;46.51
67740;BME280;54536;50.090;14.420;2022-11-02T15:39:29;100063.63;;;16.43;46.75
67740;BME280;54536;50.090;14.420;2022-11-02T15:42:06;100064.63;;;16.42;46.99
67740;BME280;54536;50.090;14.420;2022-11-02T15:53:42;100088.28;;;16.35;47.67
67740;BME280;54536;50.090;14.420;2022-11-02T16:01:26;100095.47;;;16.17;48.81
67740;BME280;54536;50.090;14.420;2022-11-02T16:03:59;100088.53;;;16.24;48.11
67740;BME280;54536;50.090;14.420;2022-11-02T16:06:30;100079.22;;;16.20;49.01
67740;BME280;54536;50.090;14.420;2022-11-02T16:09:02;100079.84;;;16.13;48.95